aviador You're here:

CYWA Decoded Metar

PETAWAWA in ON, CANADA
Report Time2017-09-26 03:00:00
UTC Time2017-09-26 03:47:51
Flight Rules vfr VFR
WindCalm
Visibility9999 m
Phenomena:N/A
Clouds:N/A
Expected CloudBase > 400 ft AGL from Temp-Dew spread
CeilingNone
Temp20°C (ISA +6)
Dew Point19°C (94% RH)
QNH1016 hPa
Density Alt1,302 ft
Elevation427 ft
Report Wrong Elevation
Raw Report
CYWA 260300Z AUTO 00000KT 7SM CLR 20/19 A3000 RMK SLP158=

Extra information for CYWA:More info

Metar Taf Metar & Taf Last 4 Metars F.Rules Stats Wind Profile Meteogram Temp Stats Airport Information Weather charts Add Link Nearby VenuesMetar ALERT Operation Metar Decoded Social comments